Forest Grove, Pennsylvania
Current Conditions -  °F | °C
As of 6:54 PM on Monday 22 Dec 2014 (Local Time) from KDYL Reporting Station
Light Rain Light Rain  
Wind Chill: 32°   Ceiling: 600
Heat Index: 37°   Visibility: 8mi
Dew Point: 37°   Wind: 7mph
Humidity: 100%   Direction: 50°NE
Pressure: 30.18"   Gusts: NA
Location:  40.29°N, 75.05°W
Report Text: KDYL 222354Z AUTO 05006KT 8SM -RA OVC006 03/03 A3018 RMK AO2 UPB31E43RAB43 SLP228 P0000 60000 T00280028 10056 20028 55003
Loading
Personal Weather Stations






























Interactive Weather Map New forecast layout! Learn more

10-Day Weather Forecast

Advertisements
Track Severe Weather on mobile